Time;durP1;ratioP1;P1;durP2;ratioP2;P2;SDS_P1;SDS_P2;PMS_P1;PMS_P2;Temp;Humidity;BMP_temperature;BMP_pressure;BME280_temperature;BME280_humidity;BME280_pressure;Samples;Min_cycle;Max_cycle;Signal;HPM_P1;HPM_P2
2021/12/25 00:01:39;;;;;;;11.40;9.20;;;5.10;99.90;;;;;;5034510;28;20532;-79
2021/12/25 00:04:07;;;;;;;10.97;9.23;;;5.10;99.90;;;;;;5035466;28;20475;-79
2021/12/25 00:06:36;;;;;;;11.80;8.77;;;5.10;99.90;;;;;;5035306;28;20460;-80
2021/12/25 00:09:03;;;;;;;11.23;9.07;;;5.10;99.90;;;;;;5035086;28;20460;-79
2021/12/25 00:11:30;;;;;;;12.97;10.43;;;5.10;99.90;;;;;;5034389;28;20520;-80
2021/12/25 00:13:57;;;;;;;13.90;10.10;;;5.20;99.90;;;;;;5034668;28;20480;-80
2021/12/25 00:16:24;;;;;;;9.33;8.43;;;5.10;99.90;;;;;;5045122;28;20547;-80
2021/12/25 00:18:50;;;;;;;14.50;10.40;;;5.00;99.90;;;;;;5054712;28;20457;-79
2021/12/25 00:21:17;;;;;;;13.17;10.60;;;4.90;99.90;;;;;;5034699;28;20459;-80
2021/12/25 00:23:45;;;;;;;14.30;10.73;;;5.00;99.90;;;;;;5034808;28;20558;-80
2021/12/25 00:26:25;;;;;;;11.03;8.60;;;4.90;99.90;;;;;;5035717;28;21218;-80
2021/12/25 00:28:59;;;;;;;10.13;8.20;;;4.80;99.90;;;;;;5037172;28;20454;-78
2021/12/25 00:31:47;;;;;;;9.80;7.50;;;4.80;99.90;;;;;;5056308;28;20456;-78
2021/12/25 00:34:15;;;;;;;11.30;8.97;;;4.80;99.90;;;;;;5053773;28;20568;-80
2021/12/25 00:36:42;;;;;;;12.60;8.77;;;4.90;99.90;;;;;;5056208;28;20515;-80
2021/12/25 00:39:10;;;;;;;15.20;9.57;;;4.90;99.90;;;;;;5054865;28;20456;-80
2021/12/25 00:41:37;;;;;;;13.63;10.67;;;4.80;99.90;;;;;;5056048;28;20466;-78
2021/12/25 00:44:04;;;;;;;14.90;11.60;;;4.80;99.90;;;;;;5051511;28;20828;-79
2021/12/25 00:46:31;;;;;;;14.23;11.07;;;4.80;99.90;;;;;;5055702;28;20445;-80
2021/12/25 00:48:58;;;;;;;15.80;12.77;;;4.90;99.90;;;;;;5042398;28;20845;-79
2021/12/25 00:51:24;;;;;;;12.70;11.10;;;4.80;99.90;;;;;;5036124;28;20458;-80
2021/12/25 00:53:51;;;;;;;13.17;11.50;;;4.70;99.90;;;;;;5045495;28;20477;-80
2021/12/25 00:56:19;;;;;;;11.93;9.97;;;4.60;99.90;;;;;;5055544;28;20448;-80
2021/12/25 00:58:46;;;;;;;11.10;9.80;;;4.50;99.90;;;;;;5044552;28;20991;-79
2021/12/25 01:01:13;;;;;;;11.47;8.90;;;4.50;99.90;;;;;;5038041;28;21032;-78
2021/12/25 01:03:40;;;;;;;10.63;9.10;;;4.50;99.90;;;;;;5048574;28;20478;-80
2021/12/25 01:06:07;;;;;;;12.03;9.87;;;4.40;99.90;;;;;;5058874;28;20816;-80
2021/12/25 01:08:33;;;;;;;11.43;8.80;;;4.40;99.90;;;;;;5056996;28;20987;-80
2021/12/25 01:11:00;;;;;;;14.40;11.60;;;4.30;99.90;;;;;;5058664;28;20459;-80
2021/12/25 01:13:32;;;;;;;12.30;10.33;;;4.30;99.90;;;;;;5038129;28;20481;-80
2021/12/25 01:16:16;;;;;;;15.20;11.30;;;4.30;99.90;;;;;;5038887;28;20460;-80
2021/12/25 01:21:51;;;;;;;13.57;10.80;;;4.20;99.90;;;;;;5037808;28;20482;-79
2021/12/25 01:24:39;;;;;;;12.50;10.50;;;4.20;99.90;;;;;;5036719;28;20516;-79
2021/12/25 01:29:55;;;;;;;11.77;9.67;;;4.10;99.90;;;;;;5021137;28;20445;-79
2021/12/25 01:35:35;;;;;;;12.03;10.07;;;4.10;99.90;;;;;;5037185;28;20516;-80
2021/12/25 01:38:18;;;;;;;11.50;10.30;;;4.10;99.90;;;;;;5039470;28;20452;-79
2021/12/25 01:40:54;;;;;;;10.60;9.00;;;4.00;99.90;;;;;;5064026;28;20488;-79
2021/12/25 01:48:51;;;;;;;11.70;10.50;;;3.90;99.90;;;;;;5037573;28;20849;-80
2021/12/25 01:51:18;;;;;;;10.97;9.70;;;3.90;99.90;;;;;;5053603;28;20458;-80
2021/12/25 01:53:44;;;;;;;11.43;10.23;;;3.80;99.90;;;;;;5042097;28;21017;-80
2021/12/25 01:56:11;;;;;;;11.50;9.93;;;3.90;99.90;;;;;;5050896;28;20535;-79
2021/12/25 01:58:38;;;;;;;13.63;10.17;;;3.80;99.90;;;;;;5051651;28;20460;-80
2021/12/25 02:01:09;;;;;;;11.10;9.90;;;3.70;99.90;;;;;;5042624;28;20485;-79
2021/12/25 02:03:37;;;;;;;11.30;9.57;;;3.70;99.90;;;;;;5036196;28;20491;-79
2021/12/25 02:06:08;;;;;;;10.03;8.97;;;3.70;99.90;;;;;;5048173;28;20452;-79
2021/12/25 02:08:35;;;;;;;10.80;9.70;;;3.80;99.90;;;;;;5057051;28;20456;-80
2021/12/25 02:11:03;;;;;;;12.57;10.07;;;3.80;99.90;;;;;;5050356;28;20448;-80
2021/12/25 02:13:30;;;;;;;13.37;11.33;;;3.70;99.90;;;;;;5044034;28;20473;-80
2021/12/25 02:15:59;;;;;;;13.43;10.13;;;3.80;99.90;;;;;;5046780;28;20452;-80
2021/12/25 02:18:32;;;;;;;14.10;12.40;;;3.70;99.90;;;;;;5056313;28;20488;-79
2021/12/25 02:21:02;;;;;;;11.47;10.27;;;3.70;99.90;;;;;;5045766;28;20481;-81
2021/12/25 02:23:32;;;;;;;12.10;10.47;;;3.70;99.90;;;;;;5036826;28;20858;-80
2021/12/25 02:25:59;;;;;;;13.50;12.07;;;3.60;99.90;;;;;;5037046;28;20460;-80
2021/12/25 02:28:27;;;;;;;12.70;11.40;;;3.70;99.90;;;;;;5036204;28;20460;-80
2021/12/25 02:30:59;;;;;;;18.90;13.93;;;3.70;99.90;;;;;;5048658;28;20899;-80
2021/12/25 02:33:29;;;;;;;13.63;10.30;;;3.70;99.90;;;;;;5044536;28;20497;-79
2021/12/25 02:35:56;;;;;;;12.60;11.23;;;3.70;99.90;;;;;;5049134;28;20453;-80
2021/12/25 02:38:26;;;;;;;12.77;10.67;;;3.60;99.90;;;;;;5055938;28;20539;-80
2021/12/25 02:40:53;;;;;;;14.67;11.50;;;3.60;99.90;;;;;;5054216;28;20476;-80
2021/12/25 02:43:20;;;;;;;14.40;11.70;;;3.60;99.90;;;;;;5042094;28;20478;-80
2021/12/25 02:45:47;;;;;;;12.17;10.87;;;3.50;99.90;;;;;;5046021;28;20459;-80
2021/12/25 02:48:17;;;;;;;13.80;11.53;;;3.50;99.90;;;;;;5054744;28;20447;-77
2021/12/25 02:50:45;;;;;;;12.97;11.30;;;3.40;99.90;;;;;;5054867;28;20420;-80
2021/12/25 02:53:12;;;;;;;14.33;12.40;;;3.40;99.90;;;;;;5046301;28;20476;-81
2021/12/25 02:55:42;;;;;;;13.27;11.50;;;3.40;99.90;;;;;;5035592;28;20460;-80
2021/12/25 02:58:10;;;;;;;13.13;10.67;;;3.30;99.90;;;;;;5031909;28;20453;-80
2021/12/25 03:00:41;;;;;;;13.97;11.27;;;3.40;99.90;;;;;;5030850;28;21015;-79
2021/12/25 03:03:08;;;;;;;16.07;12.93;;;3.40;99.90;;;;;;5023665;28;20477;-80
2021/12/25 03:05:35;;;;;;;13.63;11.77;;;3.30;99.90;;;;;;5034513;28;20445;-80
2021/12/25 03:08:03;;;;;;;16.13;12.83;;;3.30;99.90;;;;;;5035867;28;20453;-79
2021/12/25 03:10:32;;;;;;;13.60;10.93;;;3.30;99.90;;;;;;5034521;28;20449;-80
2021/12/25 03:13:17;;;;;;;12.63;10.53;;;3.20;99.90;;;;;;5041864;28;20472;-80
2021/12/25 03:15:47;;;;;;;13.10;10.77;;;3.30;99.90;;;;;;5034703;28;20541;-80
2021/12/25 03:18:15;;;;;;;16.63;12.03;;;3.20;99.90;;;;;;5033516;28;20484;-80
2021/12/25 03:20:44;;;;;;;13.60;10.20;;;3.30;99.90;;;;;;5036433;28;20480;-79
2021/12/25 03:23:13;;;;;;;14.37;11.10;;;3.30;99.90;;;;;;5035680;28;21034;-80
2021/12/25 03:25:40;;;;;;;14.03;11.30;;;3.30;99.90;;;;;;5036743;28;20457;-80
2021/12/25 03:28:09;;;;;;;15.80;11.70;;;3.20;99.90;;;;;;5039418;28;20449;-80
2021/12/25 03:30:39;;;;;;;15.10;11.87;;;3.20;99.90;;;;;;5036359;28;21003;-80
2021/12/25 03:33:07;;;;;;;12.40;10.37;;;3.20;99.90;;;;;;5044590;28;21177;-81
2021/12/25 03:35:35;;;;;;;11.67;9.70;;;3.20;99.90;;;;;;5056801;28;20452;-80
2021/12/25 03:38:02;;;;;;;12.60;10.90;;;3.30;99.90;;;;;;5055262;28;20452;-79
2021/12/25 03:40:29;;;;;;;12.03;9.50;;;3.30;99.90;;;;;;5056644;28;20490;-80
2021/12/25 03:42:56;;;;;;;14.47;10.70;;;3.30;99.90;;;;;;5052043;28;21022;-80
2021/12/25 03:45:24;;;;;;;16.07;10.20;;;3.20;99.90;;;;;;5056886;28;20812;-80
2021/12/25 03:48:02;;;;;;;14.40;12.23;;;3.20;99.90;;;;;;5041408;28;20467;-79
2021/12/25 03:53:25;;;;;;;14.03;10.90;;;3.20;99.90;;;;;;5036716;28;20806;-79
2021/12/25 03:58:38;;;;;;;15.33;12.43;;;3.10;99.90;;;;;;5023632;28;20448;-80
2021/12/25 04:01:25;;;;;;;13.57;11.00;;;3.10;99.90;;;;;;5018300;28;20468;-80
2021/12/25 04:04:05;;;;;;;14.80;11.70;;;3.00;99.90;;;;;;5034970;28;20904;-79
2021/12/25 04:06:33;;;;;;;16.23;13.37;;;3.00;99.90;;;;;;5039977;28;20743;-80
2021/12/25 04:09:02;;;;;;;14.23;11.33;;;2.90;99.90;;;;;;5043941;28;20483;-80
2021/12/25 04:11:33;;;;;;;14.27;10.87;;;3.00;99.90;;;;;;5033909;28;20457;-79
2021/12/25 04:14:00;;;;;;;13.20;9.83;;;3.00;99.90;;;;;;5034478;28;20479;-80
2021/12/25 04:16:28;;;;;;;14.80;11.70;;;3.00;99.90;;;;;;5038608;28;20535;-80
2021/12/25 04:18:56;;;;;;;12.83;9.67;;;3.00;99.90;;;;;;5053033;28;20458;-79
2021/12/25 04:21:24;;;;;;;12.40;10.07;;;3.00;99.90;;;;;;5048409;28;20492;-80
2021/12/25 04:23:50;;;;;;;12.30;10.67;;;3.00;99.90;;;;;;5043205;28;20476;-79
2021/12/25 04:26:19;;;;;;;15.60;10.97;;;3.00;99.90;;;;;;5027749;28;20457;-81
2021/12/25 04:28:58;;;;;;;12.07;10.07;;;3.00;99.90;;;;;;5034937;28;20528;-80
2021/12/25 04:31:34;;;;;;;11.07;9.10;;;3.10;99.90;;;;;;5047345;28;20198;-79
2021/12/25 04:48:25;;;;;;;12.20;9.10;;;2.70;99.90;;;;;;5027420;28;20452;-80
2021/12/25 05:02:00;;;;;;;10.05;8.45;;;2.60;99.90;;;;;;5037161;28;20244;-80
2021/12/25 05:04:32;;;;;;;10.93;8.48;;;2.50;99.90;;;;;;5041606;28;20232;-79
2021/12/25 05:07:00;;;;;;;10.40;9.03;;;2.60;99.90;;;;;;5036736;28;20690;-80
2021/12/25 05:09:27;;;;;;;9.57;8.37;;;2.60;99.90;;;;;;5036982;28;20493;-80
2021/12/25 05:11:53;;;;;;;11.43;8.63;;;2.60;99.90;;;;;;5036932;28;20456;-80
2021/12/25 05:14:20;;;;;;;12.30;10.05;;;2.60;99.90;;;;;;5044712;28;20228;-80
2021/12/25 05:16:47;;;;;;;10.30;8.47;;;2.60;99.90;;;;;;5057072;28;20212;-80
2021/12/25 05:19:14;;;;;;;13.40;9.33;;;2.60;99.90;;;;;;5044909;28;20463;-79
2021/12/25 05:21:41;;;;;;;10.80;9.13;;;2.60;99.90;;;;;;5036498;28;20476;-80
2021/12/25 05:24:09;;;;;;;9.30;7.63;;;2.60;99.90;;;;;;5037179;28;20555;-79
2021/12/25 05:26:36;;;;;;;11.53;9.27;;;2.70;99.90;;;;;;5036569;28;20538;-79
2021/12/25 05:29:04;;;;;;;10.63;8.13;;;2.60;99.90;;;;;;5045756;28;20463;-79
2021/12/25 05:31:32;;;;;;;11.90;9.20;;;2.60;99.90;;;;;;5052010;28;20202;-80
2021/12/25 05:33:59;;;;;;;11.10;9.18;;;2.60;99.90;;;;;;5037874;28;20469;-80
2021/12/25 05:36:28;;;;;;;9.40;7.23;;;2.60;99.90;;;;;;5038113;28;20208;-79
2021/12/25 05:38:57;;;;;;;12.87;8.70;;;2.50;99.90;;;;;;5036800;28;20982;-80
2021/12/25 05:41:25;;;;;;;10.60;8.77;;;2.50;99.90;;;;;;5036304;28;20480;-80
2021/12/25 05:43:52;;;;;;;9.90;8.67;;;2.40;99.90;;;;;;5037278;28;20492;-80
2021/12/25 05:46:19;;;;;;;13.20;7.53;;;2.40;99.90;;;;;;5037513;28;20453;-81
2021/12/25 05:48:48;;;;;;;8.73;7.40;;;2.30;99.90;;;;;;5036833;28;20474;-80
2021/12/25 05:51:15;;;;;;;9.93;7.63;;;2.20;99.90;;;;;;5045171;28;20490;-81
2021/12/25 05:53:42;;;;;;;10.17;8.27;;;2.30;99.90;;;;;;5036445;28;20472;-80
2021/12/25 05:56:09;;;;;;;7.97;7.17;;;2.30;99.90;;;;;;5045036;28;20451;-81
2021/12/25 05:58:38;;;;;;;11.40;8.30;;;2.30;99.90;;;;;;5056473;28;20452;-80
2021/12/25 06:01:05;;;;;;;10.83;7.63;;;2.30;99.90;;;;;;5049356;28;20481;-81
2021/12/25 06:03:33;;;;;;;9.32;7.72;;;2.30;99.90;;;;;;5035976;28;20495;-80
2021/12/25 06:06:00;;;;;;;9.10;6.90;;;2.20;99.90;;;;;;5038643;28;20210;-80
2021/12/25 06:08:28;;;;;;;13.52;8.30;;;2.30;99.90;;;;;;5045333;28;20456;-80
2021/12/25 06:10:55;;;;;;;8.65;7.75;;;2.20;99.90;;;;;;5044000;28;20208;-80
2021/12/25 06:13:23;;;;;;;9.90;8.60;;;2.20;99.90;;;;;;5041152;28;20228;-80
2021/12/25 06:15:52;;;;;;;10.38;8.40;;;2.10;99.90;;;;;;5042309;28;20680;-80
2021/12/25 06:18:20;;;;;;;10.67;9.40;;;2.00;99.90;;;;;;5058928;28;20283;-80
2021/12/25 06:20:47;;;;;;;8.77;7.80;;;2.00;99.90;;;;;;5056404;28;20459;-79
2021/12/25 06:23:13;;;;;;;10.70;8.33;;;2.10;99.90;;;;;;5042103;28;20225;-79
2021/12/25 06:25:41;;;;;;;10.27;8.20;;;2.10;99.90;;;;;;5038684;28;20457;-80
2021/12/25 06:28:07;;;;;;;10.93;8.13;;;2.10;99.90;;;;;;5058490;28;20597;-80
2021/12/25 06:30:35;;;;;;;8.95;8.05;;;2.00;99.90;;;;;;5057606;28;20208;-80
2021/12/25 06:33:03;;;;;;;10.65;8.75;;;2.00;99.90;;;;;;5037454;28;20249;-80
2021/12/25 06:35:31;;;;;;;8.90;7.75;;;2.00;99.90;;;;;;5036735;28;20216;-79
2021/12/25 06:37:58;;;;;;;9.48;7.60;;;2.00;99.90;;;;;;5047439;28;20233;-80
2021/12/25 06:40:24;;;;;;;8.52;7.63;;;2.00;99.90;;;;;;5037247;28;20214;-81
2021/12/25 06:42:51;;;;;;;13.30;7.65;;;2.00;99.90;;;;;;5040005;28;20222;-79
2021/12/25 06:45:18;;;;;;;9.18;7.80;;;1.90;99.90;;;;;;5036924;28;20205;-78
2021/12/25 06:47:45;;;;;;;9.70;7.53;;;2.00;99.90;;;;;;5037328;28;20342;-81
2021/12/25 06:50:13;;;;;;;8.85;7.80;;;2.00;99.90;;;;;;5037277;28;20210;-80
2021/12/25 06:52:41;;;;;;;8.55;7.00;;;2.10;99.90;;;;;;5039413;28;20247;-80
2021/12/25 06:55:09;;;;;;;11.80;6.43;;;2.30;99.90;;;;;;5036247;28;20213;-79
2021/12/25 06:57:43;;;;;;;9.45;7.38;;;2.60;99.90;;;;;;5044919;28;20215;-81
2021/12/25 07:00:11;;;;;;;7.55;6.68;;;2.60;99.90;;;;;;5056214;28;20665;-80
2021/12/25 07:02:38;;;;;;;7.25;6.53;;;2.50;99.90;;;;;;5053590;28;20237;-80
2021/12/25 07:05:05;;;;;;;8.75;7.43;;;2.50;99.90;;;;;;5054576;28;20195;-78
2021/12/25 07:07:34;;;;;;;10.88;7.15;;;2.40;99.90;;;;;;5054223;28;20210;-79
2021/12/25 07:10:01;;;;;;;8.23;6.95;;;2.20;99.90;;;;;;5054430;28;20216;-77
2021/12/25 07:12:31;;;;;;;9.27;7.95;;;2.10;99.90;;;;;;5045289;28;20224;-77
2021/12/25 07:14:58;;;;;;;9.43;8.13;;;2.10;99.90;;;;;;5040022;28;20281;-78
2021/12/25 07:17:25;;;;;;;9.52;8.00;;;2.00;99.90;;;;;;5054130;28;20453;-78
2021/12/25 07:19:52;;;;;;;10.38;8.43;;;2.10;99.90;;;;;;5054291;28;20198;-79
2021/12/25 07:22:18;;;;;;;9.35;7.85;;;2.00;99.90;;;;;;5049236;28;20244;-78
2021/12/25 07:24:46;;;;;;;9.50;8.00;;;2.00;99.90;;;;;;5048039;28;20304;-80
2021/12/25 07:27:13;;;;;;;9.75;7.57;;;2.00;99.90;;;;;;5034629;28;20458;-79
2021/12/25 07:29:40;;;;;;;13.80;8.18;;;1.90;99.90;;;;;;5034954;28;20581;-78
2021/12/25 07:32:07;;;;;;;10.30;8.47;;;1.90;99.90;;;;;;5040504;28;20878;-78
2021/12/25 07:34:34;;;;;;;9.82;8.13;;;2.00;99.90;;;;;;5034325;28;20452;-78
2021/12/25 07:37:01;;;;;;;9.13;7.90;;;1.90;99.90;;;;;;5031847;28;20208;-78
2021/12/25 07:39:28;;;;;;;10.95;9.32;;;2.00;99.90;;;;;;5033471;28;20564;-78
2021/12/25 07:41:56;;;;;;;9.45;8.35;;;1.80;99.90;;;;;;5033388;28;20218;-78
2021/12/25 07:44:29;;;;;;;12.05;9.95;;;1.70;99.90;;;;;;5033228;28;20235;-78
2021/12/25 07:46:56;;;;;;;10.60;8.45;;;1.80;99.90;;;;;;5038756;28;20205;-79
2021/12/25 07:49:23;;;;;;;11.95;9.10;;;1.80;99.90;;;;;;5033445;28;20627;-77
2021/12/25 07:51:50;;;;;;;11.32;9.40;;;1.70;99.90;;;;;;5039559;28;20206;-77
2021/12/25 07:54:17;;;;;;;11.88;8.80;;;1.70;99.90;;;;;;5026152;28;20224;-78
2021/12/25 07:56:44;;;;;;;13.35;9.50;;;1.70;99.90;;;;;;5019471;28;20552;-78
2021/12/25 07:59:13;;;;;;;11.10;8.77;;;1.70;99.90;;;;;;5032346;28;20198;-76
2021/12/25 08:01:40;;;;;;;11.80;8.82;;;1.60;99.90;;;;;;5032536;28;20226;-78
2021/12/25 08:04:07;;;;;;;10.10;8.52;;;1.60;99.90;;;;;;5031941;28;20230;-78
2021/12/25 08:06:34;;;;;;;12.70;9.68;;;1.60;99.90;;;;;;5034014;28;20457;-78
2021/12/25 08:09:03;;;;;;;12.27;8.70;;;1.60;99.90;;;;;;5038294;28;20213;-78
2021/12/25 08:11:30;;;;;;;19.67;8.75;;;1.60;99.90;;;;;;5049063;28;20205;-78
2021/12/25 08:13:58;;;;;;;11.27;8.50;;;1.60;99.90;;;;;;5041220;28;20226;-81
2021/12/25 08:16:26;;;;;;;7.80;6.60;;;1.60;99.90;;;;;;5040558;28;20201;-80
2021/12/25 08:18:53;;;;;;;10.05;8.15;;;1.70;99.90;;;;;;5038193;28;20646;-79
2021/12/25 08:21:20;;;;;;;9.95;7.82;;;1.70;99.90;;;;;;5036799;28;20201;-78
2021/12/25 08:23:47;;;;;;;8.30;7.38;;;1.60;99.90;;;;;;5036754;28;20588;-79
2021/12/25 08:26:14;;;;;;;7.32;6.45;;;1.50;99.90;;;;;;5041312;28;20209;-79
2021/12/25 08:28:41;;;;;;;7.32;5.75;;;1.50;99.90;;;;;;5038971;28;20593;-79
2021/12/25 08:31:07;;;;;;;7.03;5.80;;;1.50;99.90;;;;;;5048994;28;20215;-80
2021/12/25 08:33:36;;;;;;;9.88;7.03;;;1.60;99.90;;;;;;5034461;28;20222;-78
2021/12/25 08:36:03;;;;;;;7.35;6.28;;;1.60;99.90;;;;;;5039457;28;20206;-78
2021/12/25 08:38:30;;;;;;;6.32;5.18;;;1.60;99.90;;;;;;5038589;28;20209;-80
2021/12/25 08:40:56;;;;;;;7.25;6.00;;;1.60;99.90;;;;;;5047121;28;20238;-80
2021/12/25 08:43:24;;;;;;;9.07;5.90;;;1.50;99.90;;;;;;5045735;28;20241;-80
2021/12/25 08:46:02;;;;;;;8.13;5.28;;;1.50;99.90;;;;;;5056033;28;20197;-80
2021/12/25 08:48:30;;;;;;;6.78;5.22;;;1.60;99.90;;;;;;5045353;28;20210;-79
2021/12/25 08:51:00;;;;;;;7.70;4.82;;;1.60;99.90;;;;;;5052711;28;20197;-78
2021/12/25 08:53:28;;;;;;;8.20;4.65;;;1.60;99.90;;;;;;5043848;28;20584;-79
2021/12/25 08:55:57;;;;;;;5.57;4.75;;;1.70;99.90;;;;;;5043946;28;20228;-78
2021/12/25 08:58:25;;;;;;;5.63;4.38;;;1.70;99.90;;;;;;5038522;28;20230;-77
2021/12/25 09:00:56;;;;;;;6.55;3.67;;;1.70;99.90;;;;;;5034910;28;20229;-78
2021/12/25 09:03:25;;;;;;;5.80;4.90;;;1.70;99.90;;;;;;5044793;28;20233;-78
2021/12/25 09:05:53;;;;;;;4.95;3.65;;;1.70;99.90;;;;;;5057264;28;20677;-78
2021/12/25 09:08:21;;;;;;;4.88;3.35;;;1.70;99.90;;;;;;5049602;28;20201;-78
2021/12/25 09:10:48;;;;;;;5.15;3.67;;;1.70;99.90;;;;;;5032130;28;20208;-77
2021/12/25 09:13:15;;;;;;;5.55;3.90;;;1.80;99.90;;;;;;5036771;28;20611;-78
2021/12/25 09:15:42;;;;;;;4.63;3.15;;;1.70;99.90;;;;;;5057314;28;20288;-77
2021/12/25 09:18:09;;;;;;;5.90;3.72;;;1.60;99.90;;;;;;5053323;28;20585;-78
2021/12/25 09:20:36;;;;;;;8.15;3.92;;;1.50;99.90;;;;;;5035628;28;20214;-78
2021/12/25 09:23:03;;;;;;;3.60;3.10;;;1.50;99.90;;;;;;5032440;28;20230;-77
2021/12/25 09:25:32;;;;;;;5.35;3.28;;;1.50;99.90;;;;;;5040484;28;20213;-78
2021/12/25 09:27:59;;;;;;;5.90;3.95;;;1.40;99.90;;;;;;5048461;28;20263;-78
2021/12/25 09:30:26;;;;;;;3.83;3.00;;;1.30;99.90;;;;;;5036648;28;20215;-77
2021/12/25 09:32:54;;;;;;;4.80;3.72;;;1.30;99.90;;;;;;5035962;28;20240;-78
2021/12/25 09:35:20;;;;;;;4.95;2.95;;;1.30;99.90;;;;;;5036887;28;20211;-78
2021/12/25 09:37:47;;;;;;;4.57;3.15;;;1.20;99.90;;;;;;5050621;28;20704;-77
2021/12/25 09:40:15;;;;;;;5.10;3.05;;;1.20;99.90;;;;;;5055769;28;20704;-78
2021/12/25 09:42:44;;;;;;;4.90;3.70;;;1.10;99.90;;;;;;5041987;28;20233;-77
2021/12/25 09:45:12;;;;;;;5.93;3.50;;;1.10;99.90;;;;;;5037754;28;20214;-79
2021/12/25 09:47:39;;;;;;;3.33;2.35;;;1.20;99.90;;;;;;5050022;28;20202;-78
2021/12/25 09:50:08;;;;;;;4.30;2.75;;;1.20;99.90;;;;;;5057979;28;20211;-78
2021/12/25 09:52:35;;;;;;;7.15;2.75;;;1.20;99.90;;;;;;5037739;28;20223;-79
2021/12/25 09:55:02;;;;;;;4.05;2.22;;;1.30;99.90;;;;;;5024125;28;20240;-78
2021/12/25 09:57:29;;;;;;;4.10;2.35;;;1.30;99.90;;;;;;5042811;28;20291;-79
2021/12/25 09:59:57;;;;;;;3.40;2.08;;;1.40;99.90;;;;;;5029506;28;20209;-79
2021/12/25 10:02:24;;;;;;;5.57;2.20;;;1.40;99.90;;;;;;5023499;28;20312;-78
2021/12/25 10:04:53;;;;;;;4.72;2.28;;;1.40;99.90;;;;;;5021253;28;20199;-78
2021/12/25 10:07:29;;;;;;;3.13;2.10;;;1.50;99.90;;;;;;5034082;28;20209;-78
2021/12/25 10:09:58;;;;;;;3.35;2.13;;;1.60;99.90;;;;;;5030637;28;20238;-78
2021/12/25 10:12:30;;;;;;;5.18;2.78;;;1.70;99.90;;;;;;5040501;28;20212;-79
2021/12/25 10:14:58;;;;;;;3.53;1.80;;;1.70;99.90;;;;;;5025531;28;20209;-78
2021/12/25 10:17:27;;;;;;;5.68;3.05;;;1.60;99.90;;;;;;5030498;28;20577;-78
2021/12/25 10:20:20;;;;;;;3.60;2.30;;;1.70;99.90;;;;;;5026997;28;20592;-79
2021/12/25 10:23:02;;;;;;;3.28;2.53;;;1.60;99.90;;;;;;5038354;28;20256;-78
2021/12/25 10:25:35;;;;;;;4.07;2.20;;;1.60;99.90;;;;;;5029606;28;20209;-77
2021/12/25 10:28:06;;;;;;;2.72;1.65;;;1.60;99.90;;;;;;5035883;28;20210;-78
2021/12/25 10:30:44;;;;;;;4.28;2.17;;;1.60;99.90;;;;;;5029703;28;20202;-78
2021/12/25 10:33:23;;;;;;;3.65;1.88;;;1.80;99.90;;;;;;5027981;28;20739;-79
2021/12/25 10:35:50;;;;;;;2.83;2.08;;;1.90;99.90;;;;;;5026072;28;20289;-79
2021/12/25 10:38:17;;;;;;;3.88;1.90;;;1.90;99.90;;;;;;5039379;28;20766;-78
2021/12/25 10:40:45;;;;;;;3.45;2.22;;;2.10;99.90;;;;;;5029108;28;20209;-79
2021/12/25 10:43:20;;;;;;;3.23;1.57;;;2.10;99.90;;;;;;5037028;28;20308;-79
2021/12/25 10:46:01;;;;;;;2.55;2.00;;;2.00;99.90;;;;;;5034359;28;20543;-80
2021/12/25 10:48:30;;;;;;;2.80;1.70;;;1.90;99.90;;;;;;5019611;28;20213;-78
2021/12/25 10:50:59;;;;;;;3.75;1.90;;;2.10;99.90;;;;;;5034854;28;20210;-79
2021/12/25 10:53:28;;;;;;;3.53;2.20;;;2.10;99.90;;;;;;5026193;28;20278;-78
2021/12/25 10:56:05;;;;;;;3.38;1.90;;;2.20;99.90;;;;;;5023070;28;20202;-80
2021/12/25 10:58:32;;;;;;;3.88;2.10;;;2.30;99.90;;;;;;5033449;28;20210;-79
2021/12/25 11:01:01;;;;;;;3.40;1.50;;;2.30;99.90;;;;;;5036090;28;20296;-80
2021/12/25 11:03:30;;;;;;;2.85;1.95;;;2.20;99.90;;;;;;5027647;28;20230;-79
2021/12/25 11:06:02;;;;;;;3.55;2.10;;;2.10;99.90;;;;;;5030021;28;20213;-79
2021/12/25 11:08:30;;;;;;;2.53;2.05;;;2.10;99.90;;;;;;5035142;28;20226;-78
2021/12/25 11:11:00;;;;;;;2.97;1.75;;;2.00;99.90;;;;;;5033620;28;20289;-79
2021/12/25 11:13:34;;;;;;;3.13;1.75;;;2.00;99.90;;;;;;5036817;28;20356;-78
2021/12/25 11:16:15;;;;;;;3.33;2.35;;;2.00;99.90;;;;;;5027116;28;20261;-78
2021/12/25 11:19:03;;;;;;;4.82;1.70;;;1.80;99.90;;;;;;5025203;28;20213;-79
2021/12/25 11:21:31;;;;;;;3.50;2.00;;;1.90;99.90;;;;;;5029224;28;20206;-79
2021/12/25 11:24:10;;;;;;;3.10;2.08;;;1.90;99.90;;;;;;5036898;28;20222;-80
2021/12/25 11:26:38;;;;;;;3.15;1.75;;;1.80;99.90;;;;;;5029955;28;20701;-77
2021/12/25 11:29:07;;;;;;;3.08;1.95;;;1.80;99.90;;;;;;5031256;28;20210;-78
2021/12/25 11:31:35;;;;;;;3.67;1.92;;;1.80;99.90;;;;;;5049925;28;20209;-78
2021/12/25 11:34:03;;;;;;;2.72;1.70;;;2.30;99.90;;;;;;5052229;28;20312;-76
2021/12/25 11:36:37;;;;;;;3.33;1.80;;;4.20;99.90;;;;;;5032469;28;20194;-77
2021/12/25 11:39:05;;;;;;;2.70;1.73;;;6.10;99.90;;;;;;5033729;28;20520;-78
2021/12/25 11:41:33;;;;;;;3.30;1.70;;;6.00;99.90;;;;;;5053149;28;20456;-79
2021/12/25 11:44:05;;;;;;;2.90;1.67;;;5.50;99.90;;;;;;5049235;28;20485;-79
2021/12/25 11:46:39;;;;;;;2.27;1.40;;;5.00;99.90;;;;;;5038751;28;20452;-80
2021/12/25 11:49:09;;;;;;;2.80;1.50;;;5.10;99.90;;;;;;5042143;28;20456;-80
2021/12/25 11:51:39;;;;;;;2.27;1.60;;;5.10;99.90;;;;;;5037564;28;20458;-79
2021/12/25 11:54:57;;;;;;;3.73;1.80;;;5.10;99.90;;;;;;5034337;28;20647;-79
2021/12/25 11:57:48;;;;;;;3.00;1.60;;;4.30;99.90;;;;;;5037694;28;20449;-79
2021/12/25 12:00:33;;;;;;;3.30;2.00;;;4.60;99.90;;;;;;5036861;28;20826;-79
2021/12/25 12:03:01;;;;;;;4.60;1.70;;;6.00;99.90;;;;;;5038072;28;20872;-79
2021/12/25 12:05:31;;;;;;;2.60;1.20;;;7.30;99.90;;;;;;5037833;28;21014;-79
2021/12/25 12:07:59;;;;;;;3.37;1.30;;;8.50;99.90;;;;;;5035080;28;20523;-80
2021/12/25 12:10:56;;;;;;;3.17;1.30;;;10.10;99.90;;;;;;5031455;28;20512;-79
2021/12/25 12:13:28;;;;;;;2.97;1.40;;;10.80;96.30;;;;;;5037575;28;20464;-80
2021/12/25 12:15:57;;;;;;;4.50;1.63;;;11.80;93.40;;;;;;5039985;28;20763;-79
2021/12/25 12:18:34;;;;;;;2.40;1.20;;;11.40;90.00;;;;;;5034554;28;20464;-78
2021/12/25 12:21:08;;;;;;;3.00;1.40;;;8.90;91.50;;;;;;5035785;28;20477;-79
2021/12/25 12:23:44;;;;;;;2.20;1.30;;;6.80;99.90;;;;;;5034883;28;20858;-79
2021/12/25 12:26:13;;;;;;;2.77;1.40;;;5.20;99.90;;;;;;5036323;28;20517;-80
2021/12/25 12:28:48;;;;;;;3.80;1.90;;;4.30;99.90;;;;;;5054384;28;20458;-79
2021/12/25 12:31:34;;;;;;;3.23;1.20;;;4.00;99.90;;;;;;5054099;28;20454;-79
2021/12/25 12:34:03;;;;;;;3.43;1.10;;;3.80;99.90;;;;;;5055827;28;20460;-79
2021/12/25 12:36:30;;;;;;;2.70;1.33;;;3.50;99.90;;;;;;5054688;28;20448;-79
2021/12/25 12:39:19;;;;;;;3.80;2.00;;;3.10;99.90;;;;;;5056481;28;20452;-79
2021/12/25 12:41:54;;;;;;;2.70;1.17;;;2.70;99.90;;;;;;5053046;28;20892;-80
2021/12/25 12:44:29;;;;;;;2.20;0.98;;;2.50;99.90;;;;;;5037303;28;20502;-79
2021/12/25 12:47:04;;;;;;;2.00;1.07;;;2.20;99.90;;;;;;5056192;28;20205;-80
2021/12/25 12:49:35;;;;;;;3.15;1.10;;;2.10;99.90;;;;;;5043227;28;20453;-79
2021/12/25 12:52:22;;;;;;;3.80;1.00;;;2.10;99.90;;;;;;5050500;28;20205;-79
2021/12/25 12:54:51;;;;;;;2.50;1.10;;;1.90;99.90;;;;;;5057339;28;20295;-79
2021/12/25 12:57:21;;;;;;;2.15;1.15;;;1.80;99.90;;;;;;5044076;28;20213;-78
2021/12/25 12:59:50;;;;;;;2.40;1.15;;;1.70;99.90;;;;;;5050882;28;20212;-78
2021/12/25 13:02:18;;;;;;;4.10;1.40;;;1.70;99.90;;;;;;5059838;28;20236;-78
2021/12/25 13:04:48;;;;;;;3.58;1.10;;;1.70;99.90;;;;;;5059001;28;20232;-79
2021/12/25 13:07:18;;;;;;;3.88;1.17;;;1.70;99.90;;;;;;5059831;28;20296;-78
2021/12/25 13:09:51;;;;;;;2.30;0.95;;;1.60;99.90;;;;;;5060023;28;20232;-79
2021/12/25 13:12:33;;;;;;;2.20;1.27;;;1.60;99.90;;;;;;5056895;28;20217;-79
2021/12/25 13:15:09;;;;;;;2.55;1.10;;;1.50;99.90;;;;;;5039046;28;20201;-79
2021/12/25 13:17:36;;;;;;;3.45;1.17;;;1.50;99.90;;;;;;5041557;28;20190;-78
2021/12/25 13:20:07;;;;;;;3.35;1.17;;;1.40;99.90;;;;;;5041140;28;20205;-78
2021/12/25 13:22:34;;;;;;;2.40;1.10;;;1.40;99.90;;;;;;5039756;28;20229;-78
2021/12/25 13:25:06;;;;;;;2.47;0.90;;;1.30;99.90;;;;;;5038607;28;20856;-79
2021/12/25 13:27:33;;;;;;;2.08;0.88;;;1.30;99.90;;;;;;5038951;28;20205;-78
2021/12/25 13:30:08;;;;;;;2.00;0.95;;;1.30;99.90;;;;;;5038722;28;20231;-77
2021/12/25 13:32:35;;;;;;;2.90;1.05;;;1.30;99.90;;;;;;5039180;28;20229;-78
2021/12/25 13:35:04;;;;;;;2.65;1.30;;;1.30;99.90;;;;;;5040038;28;20205;-77
2021/12/25 13:37:31;;;;;;;2.50;1.30;;;1.40;99.90;;;;;;5040217;28;20571;-78
2021/12/25 13:39:58;;;;;;;11.65;9.13;;;1.40;99.90;;;;;;5042258;28;20277;-78
2021/12/25 13:42:25;;;;;;;5.22;1.25;;;1.40;99.90;;;;;;5038403;28;20220;-78
2021/12/25 13:44:53;;;;;;;2.78;1.20;;;1.30;99.90;;;;;;5037725;28;20671;-78
2021/12/25 13:47:23;;;;;;;2.60;1.55;;;1.30;99.90;;;;;;5038390;28;20241;-78
2021/12/25 13:49:52;;;;;;;4.18;1.40;;;1.20;99.90;;;;;;5039039;28;20202;-78